ESFQ weather

CLOSED Kosta Air Base
Kosta, Kronoberge län, Sweden

Public forecast

Using degrees Celsius for public forecast. Weather courtesy of forecast.io.

METAR (pilot weather report)

Closest report is Växjö Kronoberg Airport, 24.3 nm (45.0 km) WNW. Retrieved 2019/07/20 17:20 UTC (0 seconds ago):

ESMX 201720Z AUTO 15008KT 9999 FEW230/// 22/08 Q1014

TAF (pilot weather forecast)

Forecast is more than 12 hours old.

Closest forecast is Växjö Kronoberg Airport, 24.3 nm (45.0 km) WNW. Retrieved 2019/06/26 16:36 UTC (24 days ago):

TAF TAF ESMX 261530Z 2616/2724 30009KT 9999 SCT040TCU